Time;durP1;ratioP1;P1;durP2;ratioP2;P2;SDS_P1;SDS_P2;PMS_P1;PMS_P2;Temp;Humidity;BMP_temperature;BMP_pressure;BME280_temperature;BME280_humidity;BME280_pressure;Samples;Min_cycle;Max_cycle;Signal;HPM_P1;HPM_P2
2022/03/10 00:02:23;;;;;;;43.22;19.80;;;;;;;4.26;70.84;102292.09;4825739;29;20266;-72
2022/03/10 00:04:48;;;;;;;40.40;19.98;;;;;;;4.30;70.07;102290.34;4825640;29;20048;-72
2022/03/10 00:07:14;;;;;;;38.63;19.63;;;;;;;4.26;70.90;102283.34;4825565;29;20038;-72
2022/03/10 00:09:39;;;;;;;44.75;20.55;;;;;;;4.30;70.40;102295.59;4825441;29;20031;-71
2022/03/10 00:12:05;;;;;;;38.05;19.00;;;;;;;4.36;69.97;102292.13;4814787;29;20045;-72
2022/03/10 00:14:30;;;;;;;40.05;18.88;;;;;;;4.36;69.27;102297.38;4807860;29;20038;-73
2022/03/10 00:16:56;;;;;;;37.35;18.10;;;;;;;4.37;69.66;102296.50;4791559;29;20548;-73
2022/03/10 00:19:21;;;;;;;37.83;19.27;;;;;;;4.34;69.66;102305.22;4820397;29;20030;-72
2022/03/10 00:21:48;;;;;;;40.30;19.50;;;;;;;4.37;69.98;102299.13;4825455;29;20034;-73
2022/03/10 00:24:15;;;;;;;39.95;18.40;;;;;;;4.37;69.78;102296.50;4825607;29;20125;-73
2022/03/10 00:26:41;;;;;;;42.17;20.25;;;;;;;4.39;69.52;102290.38;4825739;29;20038;-70
2022/03/10 00:29:07;;;;;;;36.63;18.45;;;;;;;4.39;69.07;102289.53;4825114;29;20050;-73
2022/03/10 00:31:33;;;;;;;41.00;19.55;;;;;;;4.39;69.38;102279.91;4825263;29;20486;-72
2022/03/10 00:33:58;;;;;;;41.28;19.45;;;;;;;4.35;70.12;102282.50;4825435;29;20034;-73
2022/03/10 00:36:24;;;;;;;41.90;19.25;;;;;;;4.32;70.06;102285.97;4825506;29;20117;-73
2022/03/10 00:38:50;;;;;;;39.38;19.67;;;;;;;4.35;70.16;102282.50;4825463;29;20116;-73
2022/03/10 00:41:15;;;;;;;40.33;19.00;;;;;;;4.37;68.79;102281.66;4825292;29;20088;-73
2022/03/10 00:43:41;;;;;;;41.15;19.20;;;;;;;4.39;68.99;102281.66;4824993;29;20045;-73
2022/03/10 00:46:06;;;;;;;39.50;19.50;;;;;;;4.39;68.72;102273.78;4825292;29;20030;-71
2022/03/10 00:48:32;;;;;;;40.10;18.80;;;;;;;4.41;69.40;102279.91;4825138;29;20034;-71
2022/03/10 00:50:58;;;;;;;36.08;18.73;;;;;;;4.42;70.14;102276.41;4825008;29;20105;-73
2022/03/10 00:53:23;;;;;;;36.35;18.63;;;;;;;4.38;69.42;102282.53;4825032;29;20034;-73
2022/03/10 00:55:48;;;;;;;40.00;18.73;;;;;;;4.32;70.26;102275.47;4825107;29;20030;-72
2022/03/10 00:58:13;;;;;;;38.72;18.58;;;;;;;4.26;70.15;102276.34;4825031;29;20182;-72
2022/03/10 01:00:39;;;;;;;39.08;19.33;;;;;;;4.24;70.03;102279.84;4824473;29;20054;-72
2022/03/10 01:03:07;;;;;;;37.72;19.15;;;;;;;4.21;69.81;102275.44;4824687;29;20042;-72
2022/03/10 01:05:33;;;;;;;39.20;18.48;;;;;;;4.20;69.97;102278.06;4824647;29;20069;-73
2022/03/10 01:07:59;;;;;;;39.35;18.92;;;;;;;4.15;69.69;102279.78;4824815;29;20058;-72
2022/03/10 01:10:24;;;;;;;37.28;18.48;;;;;;;4.11;70.06;102281.53;4824786;29;20498;-73
2022/03/10 01:12:50;;;;;;;39.83;19.75;;;;;;;4.01;70.39;102274.47;4825006;29;20026;-73
2022/03/10 01:15:19;;;;;;;34.35;19.25;;;;;;;3.88;71.37;102282.25;4824724;29;20034;-73
2022/03/10 01:17:45;;;;;;;41.47;19.50;;;;;;;3.77;71.72;102276.06;4824745;29;20057;-72
2022/03/10 01:20:11;;;;;;;38.05;18.73;;;;;;;3.56;72.51;102269.81;4824685;29;20442;-72
2022/03/10 01:22:36;;;;;;;39.53;18.33;;;;;;;3.46;74.86;102272.38;4823849;29;20554;-71
2022/03/10 01:25:04;;;;;;;38.28;20.17;;;;;;;3.43;75.96;102274.09;4824639;29;20117;-73
2022/03/10 01:27:29;;;;;;;39.20;19.08;;;;;;;3.38;75.75;102270.56;4825107;29;20042;-72
2022/03/10 01:29:55;;;;;;;41.85;18.73;;;;;;;3.27;76.17;102267.84;4823883;29;20023;-73
2022/03/10 01:32:20;;;;;;;41.47;19.27;;;;;;;3.14;76.44;102267.72;4823077;29;20030;-73
2022/03/10 01:34:45;;;;;;;38.63;19.40;;;;;;;3.05;76.51;102271.13;4822964;29;20033;-72
2022/03/10 01:37:11;;;;;;;36.35;19.00;;;;;;;3.02;77.72;102263.25;4824344;29;20031;-72
2022/03/10 01:39:36;;;;;;;41.08;19.52;;;;;;;3.01;77.80;102270.22;4824682;29;20090;-73
2022/03/10 01:42:06;;;;;;;35.60;18.63;;;;;;;2.99;77.85;102276.31;4824144;29;20114;-73
2022/03/10 01:44:32;;;;;;;41.90;18.77;;;;;;;2.93;78.64;102270.16;4824502;29;20129;-73
2022/03/10 01:46:58;;;;;;;40.13;18.42;;;;;;;2.93;78.82;102274.53;4824102;29;20038;-73
2022/03/10 01:49:23;;;;;;;39.33;19.25;;;;;;;2.93;79.24;102274.53;4824478;29;20056;-73
2022/03/10 01:51:48;;;;;;;39.67;19.85;;;;;;;2.94;79.29;102261.44;4823753;29;20395;-73
2022/03/10 01:54:14;;;;;;;41.75;19.48;;;;;;;2.97;78.76;102271.06;4824020;29;20065;-74
2022/03/10 01:56:39;;;;;;;39.63;19.95;;;;;;;3.01;78.89;102270.22;4823917;29;20035;-73
2022/03/10 01:59:05;;;;;;;39.17;19.73;;;;;;;3.07;78.63;102265.06;4824357;29;20026;-73
2022/03/10 02:01:31;;;;;;;40.08;19.02;;;;;;;3.13;78.86;102265.97;4823993;29;20042;-73
2022/03/10 02:03:57;;;;;;;40.83;19.52;;;;;;;3.15;78.95;102266.88;4823515;29;20043;-72
2022/03/10 02:06:23;;;;;;;37.50;18.13;;;;;;;3.18;77.77;102261.66;4823819;29;20472;-74
2022/03/10 02:11:34;;;;;;;37.80;19.02;;;;;;;3.20;77.59;102268.66;4824147;29;20042;-73
2022/03/10 02:17:19;;;;;;;35.83;18.90;;;;;;;3.19;77.62;102277.38;4823527;29;20065;-73
2022/03/10 02:19:28;;;;;;;40.80;19.10;;;;;;;3.13;77.43;102276.44;4823676;29;20115;-72
2022/03/10 02:21:54;;;;;;;36.20;18.55;;;;;;;3.07;77.00;102272.91;4823589;29;20423;-73
2022/03/10 02:24:19;;;;;;;39.40;19.13;;;;;;;3.02;76.63;102273.72;4823453;29;20121;-73
2022/03/10 02:26:45;;;;;;;38.80;19.17;;;;;;;3.00;76.83;102275.44;4823749;29;20030;-73
2022/03/10 02:29:10;;;;;;;38.33;19.80;;;;;;;2.95;77.42;102270.16;4823506;29;20402;-73
2022/03/10 02:31:35;;;;;;;36.17;19.52;;;;;;;2.94;77.29;102269.28;4823589;29;20022;-73
2022/03/10 02:34:01;;;;;;;43.50;20.15;;;;;;;2.95;78.79;102272.78;4823260;29;20038;-74
2022/03/10 02:36:26;;;;;;;38.08;18.65;;;;;;;2.95;78.94;102271.06;4823510;29;20506;-74
2022/03/10 02:38:51;;;;;;;37.78;18.95;;;;;;;2.92;78.73;102272.75;4823399;29;20026;-71
2022/03/10 02:41:17;;;;;;;37.88;19.50;;;;;;;2.86;79.91;102277.91;4823321;29;20030;-74
2022/03/10 02:43:42;;;;;;;34.67;18.13;;;;;;;2.72;79.72;102276.03;4823847;29;20368;-73
2022/03/10 02:46:07;;;;;;;38.33;18.85;;;;;;;2.59;79.61;102271.53;4822959;29;20027;-72
2022/03/10 02:48:32;;;;;;;37.58;18.65;;;;;;;2.49;79.47;102269.66;4823600;29;20499;-73
2022/03/10 02:50:58;;;;;;;37.20;18.58;;;;;;;2.44;80.09;102269.59;4823117;29;20034;-72
2022/03/10 02:53:23;;;;;;;39.22;19.15;;;;;;;2.43;80.90;102271.34;4823477;29;20090;-73
2022/03/10 02:55:48;;;;;;;39.65;20.73;;;;;;;2.42;81.35;102276.56;4822884;29;20030;-73
2022/03/10 02:58:14;;;;;;;42.03;19.70;;;;;;;2.32;81.22;102275.56;4820523;29;20499;-71
2022/03/10 03:00:39;;;;;;;37.90;18.50;;;;;;;2.22;80.45;102279.78;4822925;29;20118;-74
2022/03/10 03:03:04;;;;;;;37.17;19.67;;;;;;;2.09;82.32;102273.53;4814847;29;20523;-74
2022/03/10 03:05:30;;;;;;;39.75;19.05;;;;;;;1.96;83.13;102275.09;4810525;29;20026;-73
2022/03/10 03:07:56;;;;;;;39.85;18.02;;;;;;;1.92;83.37;102282.88;4823259;29;20475;-73
2022/03/10 03:10:21;;;;;;;36.80;19.08;;;;;;;1.87;83.81;102288.03;4823512;29;20386;-73
2022/03/10 03:12:49;;;;;;;36.70;19.15;;;;;;;1.79;83.55;102285.31;4822852;29;20097;-74
2022/03/10 03:15:15;;;;;;;42.13;19.67;;;;;;;1.71;84.31;102289.53;4823069;29;20491;-74
2022/03/10 03:17:41;;;;;;;35.72;18.52;;;;;;;1.66;84.45;102290.31;4822855;29;20037;-74
2022/03/10 03:20:07;;;;;;;41.08;18.60;;;;;;;1.59;84.62;102292.81;4823783;29;20407;-73
2022/03/10 03:22:32;;;;;;;41.38;19.35;;;;;;;1.64;85.83;102290.31;4822859;29;20035;-73
2022/03/10 03:24:58;;;;;;;44.60;19.20;;;;;;;1.74;86.32;102296.53;4822789;29;20849;-73
2022/03/10 03:27:23;;;;;;;38.70;19.35;;;;;;;1.83;87.02;102296.69;4822806;29;20030;-73
2022/03/10 03:29:49;;;;;;;38.20;19.77;;;;;;;1.93;85.63;102292.44;4823043;29;20038;-73
2022/03/10 03:32:14;;;;;;;39.25;18.88;;;;;;;2.05;85.54;102291.78;4822956;29;20574;-73
2022/03/10 03:34:40;;;;;;;38.13;19.95;;;;;;;2.15;85.48;102300.59;4822999;29;20042;-73
2022/03/10 03:37:05;;;;;;;40.58;19.23;;;;;;;2.22;84.72;102299.84;4822919;29;20062;-73
2022/03/10 03:39:30;;;;;;;37.80;19.25;;;;;;;2.26;84.08;102294.69;4822939;29;20462;-73
2022/03/10 03:41:56;;;;;;;38.15;19.13;;;;;;;2.31;83.57;102297.34;4823351;29;20563;-73
2022/03/10 03:44:21;;;;;;;44.10;20.73;;;;;;;2.35;83.73;102303.47;4822881;29;20094;-73
2022/03/10 03:46:47;;;;;;;37.20;19.10;;;;;;;2.40;83.52;102304.41;4822544;29;20038;-72
2022/03/10 03:49:12;;;;;;;39.05;18.55;;;;;;;2.44;83.69;102303.59;4823072;29;20046;-74
2022/03/10 03:51:38;;;;;;;39.75;18.70;;;;;;;2.45;82.95;102302.75;4823202;29;20079;-73
2022/03/10 03:54:05;;;;;;;38.53;19.42;;;;;;;2.45;82.68;102313.19;4824135;29;20518;-75
2022/03/10 03:56:31;;;;;;;39.20;18.85;;;;;;;2.42;82.17;102315.78;4825725;29;20108;-73
2022/03/10 03:58:56;;;;;;;38.08;18.08;;;;;;;2.37;82.69;102312.25;4825514;29;20042;-75
2022/03/10 04:01:21;;;;;;;38.83;18.63;;;;;;;2.33;82.90;102316.53;4825922;29;20057;-72
2022/03/10 04:03:47;;;;;;;35.90;18.73;;;;;;;2.32;82.53;102311.31;4825899;29;20026;-75
2022/03/10 04:06:12;;;;;;;37.00;18.83;;;;;;;2.30;82.42;102311.25;4825438;29;20042;-75
2022/03/10 04:08:37;;;;;;;38.60;19.23;;;;;;;2.30;83.11;102308.63;4825517;29;20094;-75
2022/03/10 04:11:03;;;;;;;37.97;18.95;;;;;;;2.34;83.13;102312.19;4825632;29;20710;-75
2022/03/10 04:13:28;;;;;;;40.67;18.77;;;;;;;2.33;82.96;102327.00;4825797;29;20133;-75
2022/03/10 04:15:54;;;;;;;39.60;19.98;;;;;;;2.30;83.39;102324.31;4825259;29;20406;-74
2022/03/10 04:18:19;;;;;;;38.13;19.13;;;;;;;2.27;82.96;102325.16;4825364;29;20041;-74
2022/03/10 04:20:46;;;;;;;38.10;19.13;;;;;;;2.28;82.63;102328.69;4825760;29;20026;-75
2022/03/10 04:23:12;;;;;;;35.60;17.27;;;;;;;2.25;82.99;102329.50;4825892;29;20038;-75
2022/03/10 04:25:38;;;;;;;42.28;19.60;;;;;;;2.23;84.06;102325.13;4824973;29;20037;-74
2022/03/10 04:28:04;;;;;;;38.05;18.92;;;;;;;2.22;84.11;102324.22;4825401;29;20030;-76
2022/03/10 04:30:32;;;;;;;39.25;18.85;;;;;;;2.21;84.29;102338.19;4825283;29;20152;-74
2022/03/10 04:32:58;;;;;;;41.85;19.13;;;;;;;2.21;83.78;102330.34;4825757;29;20100;-74
2022/03/10 04:35:24;;;;;;;38.80;19.50;;;;;;;2.19;84.20;102336.41;4825375;29;20046;-74
2022/03/10 04:37:51;;;;;;;40.60;19.48;;;;;;;2.17;83.91;102338.09;4825101;29;20030;-75
2022/03/10 04:40:16;;;;;;;38.72;18.50;;;;;;;2.17;84.06;102331.13;4824871;29;20058;-75
2022/03/10 04:42:42;;;;;;;34.88;18.60;;;;;;;2.17;83.94;102333.72;4825282;29;20061;-74
2022/03/10 04:45:08;;;;;;;39.35;19.05;;;;;;;2.21;83.83;102332.06;4825400;29;20030;-75
2022/03/10 04:47:36;;;;;;;39.13;18.88;;;;;;;2.20;84.39;102328.56;4825338;29;20088;-77
2022/03/10 04:50:04;;;;;;;40.17;19.05;;;;;;;2.22;84.51;102325.97;4824807;29;20127;-75
2022/03/10 04:52:29;;;;;;;42.17;19.05;;;;;;;2.20;84.48;102327.66;4824849;29;20026;-74
2022/03/10 04:54:55;;;;;;;39.40;19.65;;;;;;;2.18;84.21;102313.72;4824869;29;20091;-74
2022/03/10 04:57:21;;;;;;;43.42;19.15;;;;;;;2.20;83.93;102317.22;4825038;29;20033;-76
2022/03/10 04:59:46;;;;;;;39.00;19.10;;;;;;;2.23;83.39;102322.50;4824271;29;20031;-73
2022/03/10 05:02:12;;;;;;;37.10;19.85;;;;;;;2.23;83.59;102315.53;4824907;29;20129;-74
2022/03/10 05:04:37;;;;;;;40.33;18.20;;;;;;;2.22;82.75;102312.91;4824951;29;20475;-75
2022/03/10 05:07:04;;;;;;;36.50;18.50;;;;;;;2.18;82.78;102306.75;4824839;29;20440;-73
2022/03/10 05:09:30;;;;;;;37.70;20.25;;;;;;;2.15;83.71;102304.09;4824597;29;20039;-74
2022/03/10 05:11:55;;;;;;;35.30;19.92;;;;;;;2.12;83.11;102307.56;4824337;29;20035;-74
2022/03/10 05:14:20;;;;;;;41.35;19.73;;;;;;;2.13;83.32;102311.91;4824705;29;20079;-75
2022/03/10 05:16:46;;;;;;;41.40;19.17;;;;;;;2.15;84.37;102318.88;4824686;29;20041;-74
2022/03/10 05:19:11;;;;;;;38.40;18.67;;;;;;;2.13;83.46;102319.75;4824490;29;20614;-74
2022/03/10 05:21:36;;;;;;;37.95;19.25;;;;;;;2.13;83.35;102319.75;4823999;29;20038;-75
2022/03/10 05:24:02;;;;;;;36.53;19.00;;;;;;;2.08;84.18;102318.78;4824773;29;20034;-75
2022/03/10 05:26:28;;;;;;;41.35;19.15;;;;;;;2.09;84.75;102325.78;4824314;29;20030;-74
2022/03/10 05:28:53;;;;;;;39.08;19.40;;;;;;;2.06;84.30;102332.69;4824764;29;20042;-75
2022/03/10 05:31:18;;;;;;;45.42;19.52;;;;;;;2.00;83.96;102330.03;4824163;29;20061;-75
2022/03/10 05:33:44;;;;;;;37.65;18.60;;;;;;;1.92;84.37;102329.91;4824519;29;20034;-75
2022/03/10 05:36:09;;;;;;;39.55;19.33;;;;;;;1.88;84.91;102331.59;4824356;29;20491;-73
2022/03/10 05:38:34;;;;;;;34.90;18.35;;;;;;;1.88;84.57;102328.97;4824517;29;20046;-72
2022/03/10 05:41:00;;;;;;;37.88;18.40;;;;;;;1.85;84.51;102331.53;4823706;29;20117;-74
2022/03/10 05:43:26;;;;;;;35.55;18.85;;;;;;;1.80;84.38;102331.47;4819854;29;20046;-74
2022/03/10 05:45:51;;;;;;;39.00;19.35;;;;;;;1.77;84.14;102326.19;4821691;29;20062;-72
2022/03/10 05:48:17;;;;;;;37.95;18.80;;;;;;;1.73;84.46;102328.75;4824448;29;20030;-73
2022/03/10 05:50:42;;;;;;;40.80;20.02;;;;;;;1.66;84.95;102325.13;4824083;29;20106;-74
2022/03/10 05:53:08;;;;;;;40.58;20.35;;;;;;;1.61;85.37;102330.31;4822131;29;20041;-72
2022/03/10 05:55:33;;;;;;;39.92;19.60;;;;;;;1.57;86.71;102332.81;4812311;29;20456;-74
2022/03/10 05:57:58;;;;;;;41.60;19.17;;;;;;;1.58;86.85;102318.91;4805965;29;20022;-74
2022/03/10 06:00:24;;;;;;;40.92;19.10;;;;;;;1.58;86.70;102318.91;4810776;29;20496;-73
2022/03/10 06:02:50;;;;;;;38.33;18.85;;;;;;;1.59;86.38;102324.16;4822925;29;20062;-74
2022/03/10 06:05:15;;;;;;;36.53;19.20;;;;;;;1.64;86.29;102321.63;4823778;29;20035;-73
2022/03/10 06:07:40;;;;;;;41.03;20.02;;;;;;;1.64;86.19;102324.25;4823470;29;20027;-73
2022/03/10 06:10:06;;;;;;;36.03;19.40;;;;;;;1.66;86.31;102319.91;4823097;29;20475;-74
2022/03/10 06:12:32;;;;;;;41.10;20.83;;;;;;;1.68;86.78;102330.41;4823645;29;20411;-73
2022/03/10 06:15:00;;;;;;;36.13;19.58;;;;;;;1.70;86.14;102328.69;4823655;29;20042;-74
2022/03/10 06:17:26;;;;;;;39.08;18.60;;;;;;;1.69;86.65;102319.97;4823277;29;20034;-73
2022/03/10 06:19:52;;;;;;;37.20;19.05;;;;;;;1.68;86.49;102322.56;4823684;29;20075;-74
2022/03/10 06:22:19;;;;;;;38.25;19.50;;;;;;;1.66;87.11;102325.13;4823070;29;20035;-74
2022/03/10 06:24:45;;;;;;;40.38;20.55;;;;;;;1.68;87.15;102327.78;4823454;29;20027;-74
2022/03/10 06:27:11;;;;;;;43.92;19.85;;;;;;;1.73;86.89;102319.16;4823339;29;20550;-74
2022/03/10 06:29:43;;;;;;;37.45;20.20;;;;;;;1.78;86.43;102320.13;4822547;29;20372;-75
2022/03/10 06:32:08;;;;;;;37.60;19.97;;;;;;;1.83;86.22;102314.06;4823550;29;20022;-74
2022/03/10 06:34:37;;;;;;;37.83;18.40;;;;;;;1.86;85.47;102320.22;4823235;29;20295;-75
2022/03/10 06:37:03;;;;;;;37.90;18.77;;;;;;;1.90;86.13;102314.19;4822523;29;20030;-73
2022/03/10 06:39:28;;;;;;;34.92;18.50;;;;;;;1.95;85.47;102319.50;4819483;29;20179;-74
2022/03/10 06:41:53;;;;;;;36.67;19.00;;;;;;;2.00;85.52;102330.03;4821722;29;20535;-72
2022/03/10 06:44:19;;;;;;;36.05;18.60;;;;;;;2.06;85.87;102325.75;4823333;29;20026;-72
2022/03/10 06:46:44;;;;;;;38.25;19.08;;;;;;;2.13;85.50;102322.34;4821629;29;20038;-73
2022/03/10 06:49:10;;;;;;;37.58;18.25;;;;;;;2.19;85.18;102329.41;4823351;29;20155;-73
2022/03/10 06:51:35;;;;;;;40.78;19.85;;;;;;;2.25;85.05;102332.13;4823230;29;20038;-73
2022/03/10 06:54:01;;;;;;;40.10;19.42;;;;;;;2.33;84.07;102331.31;4823052;29;20364;-73
2022/03/10 06:56:26;;;;;;;36.80;18.65;;;;;;;2.39;83.75;102329.69;4822126;29;20113;-73
2022/03/10 06:58:51;;;;;;;39.30;19.38;;;;;;;2.43;83.35;102335.81;4841382;29;20360;-75
2022/03/10 07:01:18;;;;;;;36.95;19.52;;;;;;;2.46;84.34;102338.50;4828960;29;20239;-75
2022/03/10 07:03:43;;;;;;;35.55;18.52;;;;;;;2.52;84.63;102337.69;4822913;29;20399;-75
2022/03/10 07:06:08;;;;;;;37.40;18.88;;;;;;;2.56;84.76;102332.53;4822987;29;20034;-75
2022/03/10 07:08:34;;;;;;;36.70;18.88;;;;;;;2.63;84.58;102338.69;4823372;29;20438;-75
2022/03/10 07:10:59;;;;;;;39.17;19.40;;;;;;;2.71;83.95;102342.31;4822442;29;20046;-73
2022/03/10 07:13:24;;;;;;;40.83;19.48;;;;;;;2.75;84.00;102340.56;4822425;29;20038;-74
2022/03/10 07:15:50;;;;;;;37.08;19.25;;;;;;;2.79;83.32;102347.63;4822756;29;20050;-73
2022/03/10 07:18:15;;;;;;;40.90;19.33;;;;;;;2.88;82.68;102352.97;4816345;29;20050;-74
2022/03/10 07:20:40;;;;;;;40.13;18.95;;;;;;;2.92;82.80;102353.88;4812416;29;20042;-71
2022/03/10 07:23:06;;;;;;;36.42;19.63;;;;;;;2.92;81.71;102361.72;4821684;29;20034;-72
2022/03/10 07:25:31;;;;;;;37.03;19.35;;;;;;;2.98;82.11;102366.13;4821578;29;20034;-72
2022/03/10 07:27:56;;;;;;;38.55;19.17;;;;;;;3.06;82.49;102364.50;4820113;29;20109;-72
2022/03/10 07:30:22;;;;;;;35.63;18.60;;;;;;;3.11;82.03;102358.44;4826344;29;20041;-75
2022/03/10 07:32:47;;;;;;;36.55;18.95;;;;;;;3.21;81.51;102366.38;4825833;29;20062;-74
2022/03/10 07:35:12;;;;;;;38.08;19.23;;;;;;;3.32;80.81;102364.75;4825833;29;20027;-74
2022/03/10 07:37:37;;;;;;;36.58;18.98;;;;;;;3.41;80.57;102354.34;4826365;29;20030;-73
2022/03/10 07:40:04;;;;;;;34.28;18.33;;;;;;;3.49;80.29;102369.28;4826478;29;20080;-74
2022/03/10 07:42:30;;;;;;;34.22;18.08;;;;;;;3.56;79.52;102364.09;4825664;29;20046;-74
2022/03/10 07:44:55;;;;;;;37.22;19.05;;;;;;;3.65;78.53;102354.59;4826103;29;20026;-73
2022/03/10 07:47:20;;;;;;;35.53;18.15;;;;;;;3.73;77.86;102361.66;4826399;29;20543;-72
2022/03/10 07:49:46;;;;;;;34.00;19.05;;;;;;;3.82;77.30;102355.59;4825640;29;20034;-73
2022/03/10 07:52:11;;;;;;;36.53;17.92;;;;;;;3.89;76.76;102360.00;4826155;29;20083;-73
2022/03/10 07:54:36;;;;;;;33.35;17.95;;;;;;;3.96;76.32;102360.94;4824764;29;20530;-73
2022/03/10 07:57:02;;;;;;;35.10;18.20;;;;;;;4.04;76.31;102364.50;4815729;29;20035;-72
2022/03/10 07:59:27;;;;;;;36.72;18.70;;;;;;;4.10;75.93;102355.78;4808082;29;20027;-73
2022/03/10 08:01:52;;;;;;;36.90;18.08;;;;;;;4.17;76.08;102354.06;4823988;29;20046;-75
2022/03/10 08:04:19;;;;;;;36.90;18.38;;;;;;;4.20;75.64;102356.72;4825594;29;20060;-73
2022/03/10 08:06:44;;;;;;;35.97;18.23;;;;;;;4.29;75.68;102363.78;4825869;29;20169;-73
2022/03/10 08:09:10;;;;;;;38.80;19.73;;;;;;;4.34;75.45;102359.44;4830921;29;20122;-72
2022/03/10 08:11:41;;;;;;;35.15;18.85;;;;;;;4.43;76.03;102359.47;4826165;29;20426;-72
2022/03/10 08:14:07;;;;;;;35.53;18.45;;;;;;;4.51;75.22;102367.38;4825556;29;20039;-72
2022/03/10 08:16:33;;;;;;;33.88;18.80;;;;;;;4.59;75.06;102352.53;4825495;29;20117;-72
2022/03/10 08:18:59;;;;;;;35.92;19.50;;;;;;;4.67;75.39;102356.09;4825266;29;20050;-71
2022/03/10 08:21:25;;;;;;;38.85;19.50;;;;;;;4.78;75.65;102352.63;4824540;29;21816;-72
2022/03/10 08:23:51;;;;;;;34.22;18.83;;;;;;;4.91;75.57;102354.41;4826089;29;20053;-72
2022/03/10 08:26:17;;;;;;;37.67;19.00;;;;;;;5.02;74.78;102346.59;4825926;29;20471;-72
2022/03/10 08:28:43;;;;;;;37.35;19.00;;;;;;;5.13;74.48;102339.63;4838613;29;20464;-73
2022/03/10 08:31:10;;;;;;;34.15;18.17;;;;;;;5.22;74.12;102338.75;4825414;29;20026;-73
2022/03/10 08:33:36;;;;;;;31.55;18.23;;;;;;;5.33;73.49;102334.41;4825191;29;20109;-73
2022/03/10 08:36:03;;;;;;;33.70;18.58;;;;;;;5.48;73.70;102341.41;4831184;29;20116;-73
2022/03/10 08:38:30;;;;;;;36.20;19.60;;;;;;;5.58;74.14;102335.28;4826643;29;20369;-72
2022/03/10 08:40:55;;;;;;;37.17;19.02;;;;;;;5.66;72.96;102334.41;4825140;29;20125;-72
2022/03/10 08:43:23;;;;;;;34.10;18.77;;;;;;;5.79;72.95;102327.38;4825269;29;20113;-73
2022/03/10 08:45:49;;;;;;;34.55;18.10;;;;;;;5.91;72.97;102328.25;4824470;29;20027;-72
2022/03/10 08:48:14;;;;;;;31.73;18.02;;;;;;;6.08;72.58;102327.38;4822625;29;20042;-71
2022/03/10 08:50:40;;;;;;;33.28;18.42;;;;;;;6.18;72.41;102326.47;4818346;29;20031;-73
2022/03/10 08:53:05;;;;;;;31.20;17.88;;;;;;;6.33;71.23;102335.19;4823611;29;20042;-72
2022/03/10 08:55:30;;;;;;;33.33;18.27;;;;;;;6.46;70.76;102333.41;4823002;29;20057;-73
2022/03/10 08:57:56;;;;;;;36.80;18.58;;;;;;;6.56;70.62;102332.50;4821642;29;20030;-72
2022/03/10 09:00:21;;;;;;;34.03;18.63;;;;;;;6.69;69.76;102325.44;4820436;29;20050;-73
2022/03/10 09:02:46;;;;;;;33.85;18.17;;;;;;;6.78;69.55;102324.47;4824271;29;20502;-73
2022/03/10 09:05:13;;;;;;;36.35;19.45;;;;;;;6.98;69.34;102330.53;4821366;29;20078;-73
2022/03/10 09:07:40;;;;;;;35.10;19.58;;;;;;;7.37;68.92;102327.66;4823741;29;20155;-73
2022/03/10 09:10:06;;;;;;;36.70;19.38;;;;;;;8.47;67.03;102321.34;4822312;29;20038;-73
2022/03/10 09:12:32;;;;;;;33.55;18.27;;;;;;;9.87;62.23;102318.31;4820835;29;20672;-73
2022/03/10 09:14:57;;;;;;;32.75;19.20;;;;;;;11.31;55.69;102321.50;4822667;29;20026;-73
2022/03/10 09:17:23;;;;;;;30.80;19.30;;;;;;;12.37;51.64;102313.50;4823736;29;20049;-73
2022/03/10 09:19:49;;;;;;;34.20;20.05;;;;;;;13.31;48.82;102321.25;4824273;29;20371;-73
2022/03/10 09:22:15;;;;;;;30.83;19.17;;;;;;;14.05;44.01;102299.25;4824644;29;20031;-73
2022/03/10 09:24:40;;;;;;;32.22;19.85;;;;;;;14.27;43.52;102312.66;4824540;29;20030;-73
2022/03/10 09:27:07;;;;;;;32.08;19.48;;;;;;;14.62;41.53;102305.13;4824122;29;20053;-74
2022/03/10 09:29:33;;;;;;;33.25;20.08;;;;;;;14.55;41.22;102293.84;4823908;29;20498;-73
2022/03/10 09:31:59;;;;;;;29.38;18.90;;;;;;;15.08;39.68;102294.47;4824023;29;20049;-73
2022/03/10 09:34:24;;;;;;;31.85;20.00;;;;;;;15.40;39.05;102294.97;4824488;29;20046;-73
2022/03/10 09:36:49;;;;;;;31.73;20.35;;;;;;;15.41;39.90;102296.69;4822577;29;21532;-72
2022/03/10 09:39:17;;;;;;;32.60;20.13;;;;;;;15.60;39.76;102296.78;4823123;29;20034;-73
2022/03/10 09:41:43;;;;;;;34.15;20.20;;;;;;;15.85;38.20;102295.75;4806880;29;20399;-73
2022/03/10 09:44:17;;;;;;;32.00;20.25;;;;;;;16.07;37.59;102297.47;4821377;29;20045;-73
2022/03/10 09:46:44;;;;;;;32.53;20.88;;;;;;;16.41;37.03;102288.78;4823628;29;20045;-72
2022/03/10 09:49:11;;;;;;;30.33;20.45;;;;;;;16.74;36.14;102293.47;4824269;29;20154;-73
2022/03/10 09:51:37;;;;;;;29.35;20.20;;;;;;;17.09;35.94;102293.59;4820983;29;20460;-72
2022/03/10 09:54:03;;;;;;;32.72;20.45;;;;;;;17.29;37.06;102299.75;4824059;29;20042;-73
2022/03/10 09:56:30;;;;;;;31.17;20.92;;;;;;;17.49;35.20;102288.06;4823402;29;20028;-73
2022/03/10 09:58:55;;;;;;;30.75;19.98;;;;;;;17.80;35.27;102292.72;4823170;29;20034;-72
2022/03/10 10:01:20;;;;;;;31.20;21.70;;;;;;;17.64;36.20;102291.78;4822406;29;20058;-73
2022/03/10 10:03:46;;;;;;;32.10;20.42;;;;;;;17.99;36.20;102289.06;4822791;29;20106;-73
2022/03/10 10:06:11;;;;;;;32.97;20.30;;;;;;;18.02;34.51;102288.94;4821993;29;20027;-72
2022/03/10 10:08:39;;;;;;;30.33;20.73;;;;;;;17.83;35.88;102286.31;4822958;29;20038;-71
2022/03/10 10:11:05;;;;;;;31.63;21.25;;;;;;;18.32;34.58;102275.66;4821282;29;20042;-73
2022/03/10 10:13:31;;;;;;;32.38;21.10;;;;;;;18.38;34.38;102285.19;4819797;29;20026;-73
2022/03/10 10:16:04;;;;;;;29.00;19.90;;;;;;;18.99;33.21;102286.28;4822169;29;20045;-72
2022/03/10 10:18:31;;;;;;;30.58;20.92;;;;;;;19.06;32.94;102277.88;4823763;29;20026;-72
2022/03/10 10:20:57;;;;;;;31.83;22.00;;;;;;;18.98;33.58;102279.16;4826353;29;20363;-72
2022/03/10 10:23:23;;;;;;;30.80;20.40;;;;;;;19.38;32.09;102278.66;4829294;29;20026;-72
2022/03/10 10:26:00;;;;;;;29.10;20.27;;;;;;;19.31;33.03;102280.84;4823561;29;20104;-72
2022/03/10 10:28:31;;;;;;;27.98;20.50;;;;;;;19.55;33.14;102271.41;4831552;29;20049;-72
2022/03/10 10:31:03;;;;;;;31.20;21.08;;;;;;;19.98;31.32;102277.75;4833064;29;20034;-71
2022/03/10 10:33:31;;;;;;;30.27;20.35;;;;;;;20.06;32.14;102268.34;4833583;29;20030;-72
2022/03/10 10:36:24;;;;;;;29.63;20.25;;;;;;;19.98;32.25;102274.19;4818034;29;20095;-72
2022/03/10 10:38:57;;;;;;;29.30;20.73;;;;;;;20.15;32.63;102273.13;4823533;29;20042;-72
2022/03/10 10:41:31;;;;;;;28.55;19.88;;;;;;;20.08;31.90;102278.03;4823636;29;20467;-73
2022/03/10 10:44:01;;;;;;;28.90;20.20;;;;;;;20.75;31.28;102272.03;4822040;29;20034;-74
2022/03/10 10:46:34;;;;;;;28.75;21.15;;;;;;;21.15;30.95;102268.53;4819374;29;20034;-71
2022/03/10 10:49:05;;;;;;;26.70;19.58;;;;;;;21.29;29.96;102264.88;4818677;29;20041;-73
2022/03/10 10:51:43;;;;;;;28.98;20.40;;;;;;;21.45;29.41;102260.19;4821108;29;20160;-74
2022/03/10 10:54:14;;;;;;;27.63;20.17;;;;;;;20.98;29.69;102271.50;4821400;29;20437;-73
2022/03/10 10:56:53;;;;;;;27.58;19.95;;;;;;;21.10;30.11;102262.56;4820960;29;20506;-73
2022/03/10 10:59:27;;;;;;;28.63;19.92;;;;;;;21.53;29.18;102254.25;4822974;29;20034;-74
2022/03/10 11:02:24;;;;;;;27.58;19.58;;;;;;;21.08;30.57;102259.13;4822830;29;20058;-74
2022/03/10 11:04:51;;;;;;;25.35;18.98;;;;;;;21.84;30.30;102254.00;4807616;29;20050;-73
2022/03/10 11:07:19;;;;;;;30.33;20.02;;;;;;;22.13;29.18;102246.53;4823349;29;20038;-74
2022/03/10 11:09:46;;;;;;;28.45;18.95;;;;;;;22.00;28.95;102237.59;4823472;29;20041;-73
2022/03/10 11:12:15;;;;;;;32.20;20.40;;;;;;;21.56;30.46;102235.22;4824385;29;20034;-73
2022/03/10 11:14:44;;;;;;;28.50;19.95;;;;;;;22.12;29.77;102235.84;4824039;29;20041;-73
2022/03/10 11:17:11;;;;;;;27.50;19.00;;;;;;;22.49;28.64;102239.44;4826211;29;20388;-73
2022/03/10 11:19:38;;;;;;;32.75;19.30;;;;;;;22.18;29.63;102228.16;4825068;29;20035;-73